Lusaka, Zambia
Current Conditions -  °F | °C
As of 10:00 AM on Thursday 23 Oct 2014 (Local Time) from FLKK Reporting Station
Clear Clear  
Wind Chill: 81°   Ceiling: Unl
Heat Index: 81°   Visibility: 6mi
Dew Point: 54°   Wind: 6mph
Humidity: 39%   Direction: 80°E
Pressure: 30.18"   Gusts: NA
Location:  15.42°S, 28.29°E
Report Text: FLKK 230800Z 08005KT CAVOK 27/12 Q1022
Loading
Personal Weather Stations






























Interactive Weather Map
Tropical Storm Tracking
New forecast layout! Learn more

10-Day Weather Forecast

Advertisements
Track Severe Weather on mobile